Date,TemperatureHighF,TemperatureAvgF,TemperatureLowF,DewpointHighF,DewpointAvgF,DewpointLowF,HumidityHigh,HumidityAvg,HumidityLow,PressureMaxIn,PressureMinIn,WindSpeedMaxMPH,WindSpeedAvgMPH,GustSpeedMaxMPH,PrecipitationSumIn
2013-1-1,14.5,8.9,2.8,-2.0,-6.3,-14.0,56,51,37,30.52,30.46,15,5,23,0.00
2013-1-2,10.0,5.2,1.3,-3.0,-7.9,-12.0,56,55,54,30.74,30.48,18,7,31,0.00
2013-1-3,23.0,12.4,1.1,2.0,-31.7,-202.0,55,33,1,30.79,30.61,7,2,10,0.06
2013-1-4,37.7,25.5,16.2,-13.0,-81.8,-202.0,25,3,3,30.60,30.31,12,4,15,0.00
2013-1-5,20.6,15.7,11.5,-5.0,-8.8,-16.0,44,34,19,30.59,30.31,14,5,28,0.00
2013-1-6,32.8,24.4,14.6,-10.0,-69.2,-99.9,32,5,1,30.58,30.17,13,6,24,0.00
2013-1-7,28.3,20.6,15.0,-3.0,-11.3,-23.0,44,26,10,30.25,29.98,9,3,13,0.00
2013-1-8,23.4,19.4,13.4,4.0,-5.1,-22.0,55,35,13,30.43,29.99,20,6,29,0.00
2013-1-9,44.4,31.2,16.9,-10.0,-51.4,-202.0,28,9,1,30.49,30.09,23,7,29,0.00
2013-1-10,38.1,34.3,26.7,-18.0,-85.8,-202.0,13,1,1,30.08,29.58,22,11,33,0.00
2013-1-11,25.8,-2.2,-14.8,-1.0,-16.8,-30.0,57,50,15,30.29,29.59,17,5,26,0.00
2013-1-12,-5.5,-10.6,-14.9,-20.0,-24.8,-30.0,50,49,47,30.73,30.30,13,3,20,0.00
2013-1-13,-4.0,-7.5,-10.4,-18.0,-21.5,-25.0,51,50,49,30.74,30.68,13,4,17,0.00
2013-1-14,0.3,-4.3,-7.3,-15.0,-20.0,-24.0,51,47,39,30.75,30.60,11,4,20,0.00
2013-1-15,19.1,9.5,-4.5,6.0,-5.0,-24.0,59,52,37,30.60,30.46,18,5,32,0.00
2013-1-16,25.4,21.2,17.4,5.0,-7.6,-16.0,52,29,15,30.61,30.42,21,7,34,0.06
2013-1-17,29.7,21.9,15.2,-5.0,-15.9,-44.0,39,22,3,30.70,30.38,11,3,19,0.05
2013-1-18,34.5,29.1,25.0,-26.0,-82.6,-99.9,9,1,1,30.38,30.15,15,5,30,0.00
2013-1-19,25.2,20.3,10.7,-2.0,-12.1,-26.0,51,25,9,30.47,30.18,13,5,28,0.00
2013-1-20,20.9,8.0,-1.0,-3.0,-11.6,-18.0,54,43,17,30.66,30.38,15,6,23,0.00
2013-1-21,16.7,8.9,-2.6,0.0,-9.6,-17.0,56,45,23,30.70,30.49,11,3,20,0.00
2013-1-22,29.4,22.1,16.7,-16.0,-51.6,-99.9,22,7,1,30.48,30.38,14,3,16,0.00
2013-1-23,30.7,27.4,21.9,-40.0,-98.9,-202.0,4,0,1,30.43,30.24,11,3,19,0.00
2013-1-24,39.2,28.3,17.9,-2.0,-59.8,-202.0,39,12,2,30.32,30.12,10,4,20,0.00
2013-1-25,32.6,24.7,16.2,-3.0,-15.7,-41.0,38,20,3,30.40,30.30,8,2,15,0.00
2013-1-26,39.6,28.8,22.6,-3.0,-9.6,-31.0,32,20,4,30.30,30.01,9,4,14,0.00
2013-1-27,37.4,27.3,16.8,5.0,-1.7,-12.0,59,32,14,30.00,29.83,10,3,11,0.00
2013-1-28,16.9,12.6,10.2,5.0,0.0,-2.0,59,57,56,30.13,29.94,5,1,9,0.00
2013-1-29,13.1,4.1,-8.1,-3.0,-10.8,-22.0,57,50,39,30.42,30.08,16,3,17,0.04
2013-1-30,9.1,1.8,-7.6,-4.0,-11.5,-21.0,56,54,50,30.40,30.28,23,5,27,0.00
2013-1-31,13.2,-2.1,-13.7,0.0,-15.6,-28.0,57,53,49,30.70,30.38,13,4,23,0.00
2013-2-1,20.9,17.9,13.6,8.0,5.4,1.0,60,58,55,30.65,30.41,17,6,25,0.02
2013-2-2,22.4,17.4,13.1,5.0,-0.7,-6.0,59,46,28,30.60,30.48,20,7,32,0.01
2013-2-3,33.3,22.4,16.5,0.0,-23.7,-99.9,46,24,1,30.55,30.19,17,4,25,0.02
2013-2-4,26.3,21.2,15.2,1.0,-7.3,-16.0,42,29,15,30.23,30.10,16,5,25,0.00
2013-2-5,28.5,23.2,19.3,2.0,-3.7,-13.0,43,32,16,30.29,30.10,15,6,21,0.01
2013-2-6,29.1,23.6,16.5,0.0,-4.4,-9.0,44,30,20,30.33,30.04,9,3,14,0.00
2013-2-7,28.3,20.5,13.6,-5.0,-23.7,-99.9,41,21,2,30.46,30.28,13,4,15,0.00
2013-2-8,31.8,21.8,11.5,0.0,-30.3,-99.9,56,20,1,30.27,30.08,15,4,22,0.00
2013-2-9,21.1,14.6,10.0,2.0,-6.0,-15.0,58,42,19,30.14,30.04,17,3,17,0.01
2013-2-10,10.5,6.8,0.7,-2.0,-6.2,-12.0,57,55,54,30.44,30.04,16,6,28,0.00
2013-2-11,11.0,4.8,-1.0,-4.0,-11.1,-14.0,55,48,37,30.53,30.43,14,4,22,0.00
2013-2-12,22.1,14.1,6.7,-4.0,-9.6,-15.0,43,35,19,30.48,30.30,18,4,19,0.00
2013-2-13,23.0,17.5,11.1,5.0,-1.1,-7.0,58,45,29,30.32,30.14,20,7,33,0.00
2013-2-14,11.1,5.9,-0.6,-2.0,-7.7,-15.0,56,54,50,30.72,30.32,17,5,33,0.00
2013-2-15,15.6,6.6,-0.9,-4.0,-10.1,-16.0,54,47,28,30.84,30.60,12,3,16,0.05
2013-2-16,31.2,24.2,15.9,0.0,-2.9,-9.0,43,31,18,30.60,30.11,14,6,24,0.05
2013-2-17,31.4,21.4,11.2,4.0,-7.8,-33.0,57,33,5,30.10,29.81,19,7,28,0.00
2013-2-18,11.5,5.9,-0.5,-1.0,-7.1,-14.0,57,55,53,30.54,30.07,13,4,25,0.00
2013-2-19,24.1,11.4,-3.6,-5.0,-18.0,-64.0,54,33,1,30.56,30.26,18,7,30,0.03
2013-2-20,21.6,14.5,6.2,-6.0,-9.4,-13.0,53,35,21,30.26,30.07,11,3,20,0.00
2013-2-21,12.2,9.1,6.4,-3.0,-5.1,-7.0,57,53,46,30.30,30.18,4,1,7,0.01
2013-2-22,16.8,11.3,5.6,-1.0,-9.7,-19.0,57,41,20,30.34,30.16,13,4,23,0.00
2013-2-23,25.6,17.2,10.5,5.0,-13.4,-33.0,59,29,8,30.15,30.01,9,3,12,0.02
2013-2-24,16.5,10.2,2.5,4.0,-2.3,-11.0,58,57,54,30.52,30.15,11,3,16,0.00
2013-2-25,29.6,15.8,3.9,-7.0,-34.4,-99.9,55,22,3,30.50,30.19,11,6,17,0.23
2013-2-26,16.2,13.6,9.0,4.0,-2.0,-15.0,58,51,25,30.51,30.16,12,4,19,0.01
2013-2-27,17.9,11.5,6.4,0.0,-4.9,-8.0,57,48,34,30.62,30.51,13,4,22,0.02
2013-2-28,20.6,14.2,8.9,2.0,-5.1,-17.0,58,44,18,30.62,30.56,15,4,19,0.01
2013-3-1,25.9,18.9,9.9,9.0,-7.1,-63.0,57,39,1,30.67,30.58,10,3,14,0.02
2013-3-2,36.8,30.8,23.6,7.0,-0.7,-12.0,44,28,12,30.58,30.15,13,4,18,0.02
2013-3-3,38.2,30.1,12.1,4.0,-9.1,-37.0,57,23,3,30.14,29.70,17,4,26,0.00
2013-3-4,12.3,3.0,-2.5,0.0,-11.4,-16.0,57,51,44,30.73,29.89,23,10,32,0.00
2013-3-5,20.6,8.4,-3.7,-5.0,-17.6,-99.9,52,35,6,30.86,30.59,13,5,19,0.02
2013-3-6,40.6,29.8,16.8,-17.0,-58.6,-99.9,20,6,1,30.58,30.00,20,7,27,0.00
2013-3-7,34.9,27.6,17.1,2.0,-9.4,-20.0,50,22,9,30.32,30.00,8,3,15,0.00
2013-3-8,33.8,23.9,18.5,6.0,0.5,-7.0,55,37,19,30.32,30.09,17,6,26,0.00
2013-3-9,21.3,16.4,8.2,5.0,-1.5,-15.0,58,47,21,30.45,30.05,21,6,29,0.00
2013-3-10,28.2,14.5,2.4,-6.0,-48.5,-99.9,55,23,1,30.62,30.39,9,3,21,0.00
2013-3-11,24.0,18.3,9.1,4.0,-7.9,-30.0,56,34,9,30.45,30.24,20,5,25,0.01
2013-3-12,21.9,12.1,1.9,-10.0,-30.2,-99.9,43,21,1,30.68,30.46,15,6,31,0.00
2013-3-13,41.9,33.0,22.3,-7.0,-15.5,-35.0,22,13,3,30.59,30.36,12,4,22,0.00
2013-3-14,46.1,37.9,27.5,4.0,-33.7,-99.9,35,13,1,30.40,30.19,13,2,17,0.00
2013-3-15,43.5,36.1,23.9,4.0,-33.3,-99.9,42,13,2,30.18,29.99,14,4,29,0.00
2013-3-16,27.5,23.0,20.1,11.0,2.3,-14.0,57,42,20,30.19,30.10,8,4,11,0.06
2013-3-17,32.2,19.7,6.2,7.0,-0.5,-15.0,57,44,13,30.09,29.65,25,8,35,0.00
2013-3-18,16.6,8.1,-3.6,-6.0,-22.1,-99.9,55,36,1,30.40,30.00,18,7,29,0.00
2013-3-19,13.2,8.9,-0.3,-4.0,-10.8,-22.0,53,41,21,30.76,30.37,9,3,19,0.00
2013-3-20,34.4,18.9,1.3,-10.0,-48.6,-99.9,41,17,2,30.76,30.06,12,6,21,0.01
2013-3-21,35.2,22.0,10.6,1.0,-3.5,-12.0,57,35,14,30.08,29.78,15,4,17,0.00
2013-3-22,19.0,11.7,-0.5,1.0,-2.4,-14.0,57,54,36,30.43,30.07,15,3,16,0.05
2013-3-23,9.5,2.6,-1.6,-9.0,-13.5,-17.0,53,48,35,30.69,30.44,16,4,25,0.04
2013-3-24,1.4,-1.7,-4.4,-13.0,-15.7,-18.0,53,51,50,30.81,30.61,12,4,19,0.00
2013-3-25,21.1,7.3,-8.8,-5.0,-17.6,-45.0,52,36,5,30.86,30.62,12,3,14,0.02
2013-3-26,28.6,19.8,12.0,-13.0,-50.6,-99.9,27,9,1,30.62,30.34,13,5,19,0.01
2013-3-27,36.8,26.4,16.4,-12.0,-55.1,-99.9,20,7,1,30.40,30.35,9,4,15,0.00
2013-3-28,41.6,31.8,22.2,3.0,-26.0,-99.9,39,17,1,30.36,30.30,7,3,13,0.00
2013-3-29,45.8,35.6,29.0,7.0,-36.0,-99.9,37,14,2,30.34,30.21,10,5,21,0.00
2013-3-30,33.1,26.1,20.5,13.0,8.2,-1.0,58,48,26,30.42,30.26,14,3,24,0.08
2013-3-31,36.4,24.6,15.1,6.0,-2.6,-13.0,53,33,12,30.42,30.25,16,4,24,0.01
2013-4-1,33.9,21.6,10.1,-1.0,-7.1,-19.0,51,31,10,30.49,30.42,12,2,15,0.00
2013-4-2,39.7,27.9,16.1,-3.0,-15.6,-99.9,38,18,1,30.46,30.34,10,3,16,0.00
2013-4-3,46.3,35.1,22.9,9.0,-30.4,-99.9,51,17,1,30.33,30.20,12,5,18,0.00
2013-4-4,45.5,34.1,23.3,9.0,-4.2,-32.0,52,23,3,30.31,30.14,14,6,18,0.00
2013-4-5,52.2,38.8,26.2,16.0,-22.4,-99.9,59,19,3,30.13,29.74,12,5,18,0.18
2013-4-6,40.3,32.6,26.4,14.0,0.4,-27.0,59,31,5,30.06,29.87,16,4,21,0.03
2013-4-7,40.5,32.2,27.0,15.0,7.5,-10.0,56,38,11,30.00,29.78,8,2,21,0.13
2013-4-8,28.0,14.9,-1.8,14.0,1.8,-15.0,60,56,52,30.43,29.79,12,4,16,0.04
2013-4-9,-1.9,-3.9,-6.2,-15.0,-17.4,-20.0,53,52,52,30.91,30.44,14,4,15,0.00
2013-4-10,12.2,5.0,-2.3,-1.0,-8.2,-16.0,56,55,53,30.83,30.40,7,2,11,0.14
2013-4-11,18.8,12.2,1.5,7.0,-1.1,-12.0,60,56,50,30.39,30.24,15,4,17,0.00
2013-4-12,18.6,15.5,10.2,6.0,2.6,-2.0,59,57,50,30.33,30.25,15,5,25,0.00
2013-4-13,37.6,27.4,10.9,11.0,0.5,-10.0,56,34,14,30.28,29.61,14,7,22,0.07
2013-4-14,24.0,12.6,3.0,9.0,-1.0,-10.0,59,55,49,30.14,29.60,24,10,34,0.00
2013-4-15,12.1,5.8,1.1,-4.0,-8.4,-12.0,55,52,45,30.57,30.14,13,4,21,0.01
2013-4-16,12.6,7.5,1.3,-4.0,-7.4,-13.0,55,51,47,30.70,30.54,11,2,11,0.00
2013-4-17,12.3,8.8,6.4,-2.0,-4.9,-6.0,56,54,49,30.68,30.57,8,2,16,0.00
2013-4-18,17.1,9.8,2.3,1.0,-8.0,-12.0,56,46,28,30.59,30.48,12,5,24,0.01
2013-4-19,28.4,20.0,16.4,10.0,5.4,-2.0,59,54,35,30.47,30.22,11,4,19,0.04
2013-4-20,36.1,27.4,21.5,12.0,7.9,-1.0,59,45,22,30.23,30.16,12,4,19,0.06
2013-4-21,27.8,22.2,14.7,11.0,8.7,3.0,60,56,44,30.38,30.19,13,3,16,0.02
2013-4-22,14.3,8.6,3.9,2.0,-4.5,-9.0,59,55,52,30.80,30.35,14,4,15,0.10
2013-4-23,20.2,10.7,-0.5,-4.0,-9.9,-18.0,56,42,18,30.78,30.56,12,3,16,0.01
2013-4-24,22.5,16.7,12.5,2.0,-2.5,-9.0,57,44,27,30.56,30.46,18,7,27,0.02
2013-4-25,44.2,33.7,21.4,-2.0,-54.6,-99.9,35,9,1,30.46,30.16,16,5,22,0.01
2013-4-26,48.4,38.6,27.6,-11.0,-59.4,-99.9,18,5,1,30.38,30.23,10,4,14,0.00
2013-4-27,53.8,44.2,34.5,-19.0,-70.6,-99.9,7,2,1,30.32,30.01,13,4,18,0.00
2013-4-28,44.4,37.6,28.1,16.0,-8.9,-99.9,59,23,1,30.11,29.95,11,3,18,0.13
2013-4-29,50.6,37.4,24.3,15.0,-10.0,-99.9,59,30,2,30.06,29.64,14,6,22,0.01
2013-4-30,26.1,21.5,14.1,12.0,1.4,-8.0,60,43,23,30.48,29.80,11,4,19,0.12
2013-5-1,26.8,18.2,10.8,-2.0,-16.4,-99.9,51,28,1,30.99,30.48,11,3,15,0.00
2013-5-2,34.1,23.6,14.7,-2.0,-35.0,-99.9,45,17,2,31.00,30.72,10,3,16,0.00
2013-5-3,44.7,32.4,21.7,-14.0,-55.7,-99.9,17,7,1,30.72,30.37,15,4,19,0.00
2013-5-4,39.1,30.3,20.2,0.0,-45.0,-99.9,40,10,1,30.53,30.41,9,3,14,0.00
2013-5-5,42.6,32.3,21.2,-12.0,-57.3,-99.9,18,7,1,30.53,30.37,10,3,12,0.00
2013-5-6,50.1,39.5,30.5,-11.0,-51.1,-99.9,14,6,1,30.38,30.18,13,4,16,0.00
2013-5-7,54.6,44.2,34.7,4.0,-35.0,-99.9,26,10,1,30.18,30.01,9,3,16,0.03
2013-5-8,51.2,43.1,32.4,11.0,-14.7,-99.9,41,16,1,30.27,30.06,10,3,17,0.00
2013-5-9,45.8,38.1,32.5,19.0,12.5,2.0,47,36,18,30.36,30.25,10,3,13,0.01
2013-5-10,53.4,38.5,28.3,21.0,-6.1,-99.9,54,32,1,30.54,30.32,14,3,21,0.12
2013-5-11,48.5,34.3,20.1,5.0,-33.5,-99.9,50,18,1,30.60,30.42,11,3,14,0.01
2013-5-12,60.0,49.0,36.1,4.0,-44.3,-99.9,24,7,1,30.42,30.11,8,2,16,0.00
2013-5-13,68.4,58.7,48.7,-5.0,-57.2,-99.9,10,3,1,30.11,29.81,14,4,18,0.00
2013-5-14,58.2,52.5,43.0,18.0,-24.2,-202.0,32,10,1,29.98,29.77,21,6,24,0.00
2013-5-15,59.8,48.0,39.3,9.0,-14.5,-99.9,23,12,1,30.09,29.94,19,6,22,0.00
2013-5-16,52.9,46.8,40.4,29.0,18.8,8.0,56,34,19,29.98,29.85,12,5,21,0.34
2013-5-17,58.3,47.7,40.0,30.0,21.6,-4.0,54,37,10,29.97,29.84,31,5,38,0.39
2013-5-18,51.6,43.7,37.3,30.0,25.0,16.0,60,48,33,29.97,29.88,9,4,19,0.18
2013-5-19,37.5,35.7,30.7,25.0,23.5,19.0,62,61,59,29.96,29.88,18,4,29,1.44
2013-5-20,31.0,29.5,27.1,19.0,17.8,16.0,62,62,62,30.18,29.90,18,8,33,3.06
2013-5-21,28.4,26.6,24.5,17.0,15.2,13.0,63,62,62,30.27,30.15,16,5,30,1.10
2013-5-22,33.5,30.2,26.5,22.0,18.5,15.0,63,62,57,30.39,30.24,21,4,26,0.01
2013-5-23,45.4,37.2,30.1,21.0,15.4,7.0,60,43,27,30.39,30.10,32,19,44,0.00
2013-5-24,57.1,46.7,41.0,27.0,21.1,3.0,50,38,12,30.11,30.00,20,8,34,0.00
2013-5-25,65.3,53.0,41.4,30.0,-7.6,-99.9,55,28,1,30.08,29.88,27,7,34,0.00
2013-5-26,59.4,48.5,38.9,33.0,25.0,6.0,61,43,13,29.98,29.85,12,5,15,0.02
2013-5-27,55.0,42.6,34.5,32.0,27.1,14.0,61,55,32,30.01,29.80,13,4,17,0.18
2013-5-28,52.3,41.6,30.0,24.0,11.0,-18.0,56,34,5,29.96,29.82,15,5,19,0.22
2013-5-29,49.2,41.1,36.9,28.0,23.3,20.0,61,50,33,29.85,29.68,9,3,13,0.44
2013-5-30,37.1,34.2,29.2,24.0,21.5,17.0,61,60,55,29.80,29.57,23,7,33,1.08
2013-5-31,30.1,28.7,25.8,18.0,16.7,14.0,62,61,60,30.26,29.77,26,11,33,2.22
2013-6-1,41.7,32.3,23.8,17.0,14.2,9.0,63,49,27,30.50,30.26,13,5,23,0.52
2013-6-2,57.2,42.7,28.1,24.0,10.7,-31.0,53,33,2,30.42,29.89,16,5,25,0.00
2013-6-3,50.3,45.1,32.8,22.0,8.7,-36.0,44,26,2,30.07,29.70,13,6,24,0.00
2013-6-4,37.5,31.1,26.7,14.0,11.1,8.0,57,44,32,30.47,30.05,19,6,24,0.00
2013-6-5,40.2,31.5,27.1,17.0,14.5,12.0,60,51,31,30.49,30.40,10,3,13,0.00
2013-6-6,52.2,41.9,29.8,19.0,10.1,-16.0,55,32,6,30.40,30.26,12,4,17,0.00
2013-6-7,61.8,48.7,39.4,26.0,1.2,-99.9,50,26,1,30.26,29.81,11,4,20,0.03
2013-6-8,50.7,44.0,36.2,25.0,15.7,-4.0,55,36,10,30.12,29.78,17,6,26,0.12
2013-6-9,62.3,50.0,33.7,20.0,-28.6,-99.9,56,18,2,30.16,29.91,11,3,18,0.00
2013-6-10,62.8,55.9,49.1,30.0,16.1,-3.0,48,23,9,29.92,29.81,14,5,17,0.00
2013-6-11,56.7,49.8,40.1,34.0,29.4,13.0,61,47,23,30.05,29.88,22,8,42,0.32
2013-6-12,56.9,45.5,39.0,28.0,25.7,9.0,61,48,15,30.31,30.02,12,4,16,0.00
2013-6-13,70.7,54.3,41.5,28.0,-4.0,-99.9,52,21,1,30.27,29.91,17,6,27,0.01
2013-6-14,60.7,51.6,39.8,29.0,-6.4,-99.9,59,23,1,30.12,29.78,14,6,31,0.00
2013-6-15,57.7,47.9,39.5,21.0,-5.7,-99.9,45,19,1,30.20,30.11,10,2,15,0.00
2013-6-16,60.1,52.5,44.0,27.0,3.2,-99.9,46,21,1,30.21,30.11,10,3,14,0.00
2013-6-17,56.2,48.5,42.3,29.0,21.4,10.0,46,35,18,30.22,30.18,9,3,11,0.01
2013-6-18,64.4,52.8,43.0,30.0,12.4,-99.9,45,29,2,30.21,29.98,15,5,18,0.04
2013-6-19,68.4,58.0,48.0,34.0,15.0,-17.0,41,22,3,29.97,29.68,21,9,26,0.00
2013-6-20,62.4,55.5,44.6,31.0,-35.1,-99.9,47,11,1,29.99,29.69,12,5,24,0.00
2013-6-21,55.0,47.3,41.7,35.0,31.6,25.0,61,55,39,30.10,29.91,14,4,22,0.73
2013-6-22,56.0,44.1,36.8,32.0,26.6,20.0,61,52,28,30.14,29.93,19,3,25,0.60
2013-6-23,57.3,45.8,33.4,24.0,-3.2,-99.9,60,30,1,30.12,29.99,11,4,20,0.01
2013-6-24,68.4,57.1,48.3,31.0,4.5,-99.9,40,18,1,29.98,29.75,15,6,22,0.11
2013-6-25,59.7,55.8,47.9,28.0,9.7,-25.0,46,18,3,29.94,29.72,18,6,33,0.00
2013-6-26,67.6,57.7,47.8,28.0,10.6,-99.9,39,21,2,30.11,29.94,11,4,15,0.00
2013-6-27,67.5,56.2,45.8,28.0,16.2,-25.0,48,27,2,30.27,30.11,10,3,23,0.00
2013-6-28,63.5,54.3,43.5,29.0,14.4,-4.0,50,25,7,30.32,30.27,10,3,15,0.00
2013-6-29,60.3,52.2,42.8,29.0,17.9,3.0,54,29,10,30.29,30.23,11,3,12,0.00
2013-6-30,61.6,52.9,42.1,22.0,13.9,2.0,42,23,10,30.30,30.26,9,3,14,0.00
2013-7-1,62.4,53.9,46.0,26.0,18.7,9.0,40,26,14,30.32,30.29,10,3,13,0.00
2013-7-2,63.6,55.1,46.2,26.0,15.4,4.0,42,23,10,30.30,30.15,10,4,13,0.00
2013-7-3,69.1,58.5,48.5,21.0,-7.3,-99.9,29,14,1,30.15,29.93,9,3,11,0.00
2013-7-4,65.4,56.2,46.9,35.0,18.4,-20.0,57,27,4,30.02,29.90,11,3,32,0.61
2013-7-5,64.6,56.1,50.1,35.0,25.2,12.0,56,33,13,29.97,29.81,12,4,18,0.12
2013-7-6,64.9,56.7,50.6,32.0,27.2,17.0,44,34,16,30.02,29.83,8,3,11,0.00
2013-7-7,64.2,55.3,47.2,37.0,30.8,21.0,54,40,23,30.19,29.97,15,4,20,0.05
2013-7-8,68.0,53.9,44.5,33.0,24.7,13.0,55,35,12,30.16,30.02,16,6,27,0.40
2013-7-9,62.9,54.1,44.7,29.0,22.1,7.0,55,30,13,30.29,30.08,9,2,13,0.00
2013-7-10,70.7,59.0,44.6,36.0,22.7,-23.0,47,29,2,30.28,30.07,11,5,13,0.00
2013-7-11,78.4,66.2,56.2,31.0,-26.8,-99.9,37,14,1,30.07,29.74,18,7,31,0.00
2013-7-12,66.2,59.1,52.7,34.0,21.9,1.0,45,26,8,30.00,29.70,20,5,25,0.02
2013-7-13,70.5,60.8,52.6,35.0,27.5,15.0,51,29,12,30.11,29.99,12,4,17,0.00
2013-7-14,57.2,51.0,44.9,36.0,32.8,28.0,60,51,35,30.29,30.10,11,4,16,0.08
2013-7-15,68.9,57.9,47.1,36.0,29.7,17.0,60,38,14,30.28,30.07,13,5,17,0.00
2013-7-16,69.2,61.3,52.7,25.0,11.0,-5.0,28,15,5,30.21,30.08,12,4,19,0.00
2013-7-17,71.9,61.7,52.2,33.0,19.8,-23.0,39,22,2,30.21,30.07,10,3,14,0.00
2013-7-18,71.2,63.0,52.6,30.0,14.6,-99.9,31,18,2,30.11,30.03,8,3,16,0.00
2013-7-19,67.8,56.6,44.8,33.0,23.1,-6.0,52,31,5,30.18,30.02,10,2,12,0.26
2013-7-20,65.4,57.6,50.0,35.0,26.5,4.0,54,34,9,30.07,29.93,11,4,19,0.03
2013-7-21,72.1,61.4,50.9,33.0,-13.6,-99.9,50,16,1,29.99,29.86,9,4,15,0.09
2013-7-22,69.8,55.9,46.2,33.0,-1.8,-99.9,57,27,2,30.02,29.88,17,4,24,0.25
2013-7-23,65.3,56.1,48.7,32.0,26.3,17.0,49,33,16,30.17,30.00,11,3,13,0.00
2013-7-24,66.5,56.2,45.5,30.0,21.0,10.0,52,29,12,30.23,30.08,12,3,18,0.00
2013-7-25,58.8,51.7,42.3,29.0,23.5,17.0,58,35,21,30.30,30.00,16,5,22,0.31
2013-7-26,55.4,46.8,39.1,29.0,25.2,19.0,58,44,29,30.36,30.30,11,3,15,0.10
2013-7-27,60.6,48.8,37.5,28.0,23.6,18.0,48,38,26,30.32,30.09,16,7,21,0.00
2013-7-28,61.0,50.7,44.7,31.0,23.3,7.0,48,35,14,30.09,29.98,10,4,14,0.03
2013-7-29,58.8,51.6,43.3,29.0,24.9,19.0,54,37,22,30.20,29.99,8,2,14,0.00
2013-7-30,65.9,55.4,46.1,32.0,17.5,-26.0,53,27,2,30.32,30.16,12,5,18,0.03
2013-7-31,64.0,53.0,40.3,27.0,18.7,-27.0,54,29,2,30.35,30.25,7,2,11,0.02
2013-8-1,67.0,55.9,49.8,32.0,22.4,-11.0,45,31,4,30.26,29.97,15,4,25,0.19
2013-8-2,61.6,50.0,40.1,33.0,27.2,21.0,61,43,22,30.18,29.93,20,8,25,0.02
2013-8-3,62.9,53.5,45.8,36.0,30.6,23.0,57,43,22,30.24,30.11,17,5,24,0.03
2013-8-4,66.0,56.1,46.2,38.0,34.2,26.0,61,45,25,30.18,30.05,11,3,13,0.00
2013-8-5,65.7,56.3,46.3,37.0,19.0,-26.0,54,29,2,30.09,29.94,10,3,26,0.02
2013-8-6,59.9,51.8,44.8,27.0,18.2,1.0,48,29,10,30.15,29.95,10,2,16,0.01
2013-8-7,59.9,50.9,42.2,31.0,24.4,14.0,54,37,17,30.18,30.06,11,3,20,0.05
2013-8-8,60.8,52.0,42.1,31.0,22.3,14.0,50,32,18,30.19,30.11,10,3,19,0.00
2013-8-9,58.7,48.3,36.4,31.0,25.9,16.0,58,43,20,30.31,30.18,13,3,16,1.15
2013-8-10,63.6,53.3,42.9,35.0,27.2,12.0,57,38,17,30.29,30.14,9,3,18,0.02
2013-8-11,65.4,53.1,46.6,35.0,21.7,8.0,55,32,11,30.21,30.14,13,3,22,0.00
2013-8-12,66.0,53.4,44.2,34.0,17.4,-3.0,56,27,7,30.23,30.18,9,3,15,0.00
2013-8-13,61.3,48.8,43.5,34.0,29.9,22.0,59,49,22,30.28,30.19,12,4,20,0.30
2013-8-14,61.6,54.0,44.7,33.0,24.6,8.0,50,33,12,30.27,30.14,8,3,11,0.00
2013-8-15,62.4,52.9,43.4,35.0,23.5,8.0,59,34,14,30.20,30.12,12,3,18,0.06
2013-8-16,69.0,58.0,46.3,33.0,16.1,-99.9,60,29,4,30.19,30.11,8,4,10,0.00
2013-8-17,77.7,64.9,51.1,31.0,-33.1,-99.9,46,13,1,30.12,29.97,10,4,13,0.00
2013-8-18,68.9,60.2,50.1,33.0,18.7,-99.9,48,24,2,30.06,29.93,14,3,23,0.00
2013-8-19,74.2,62.7,49.8,33.0,-17.7,-99.9,49,16,1,30.09,29.96,8,3,14,0.00
2013-8-20,75.5,64.0,54.1,30.0,-17.3,-99.9,34,10,1,29.96,29.91,11,3,18,0.02
2013-8-21,69.2,60.3,54.5,22.0,3.3,-99.9,28,14,1,30.13,29.96,11,5,13,0.00
2013-8-22,64.7,57.1,50.5,34.0,23.3,9.0,45,28,11,30.20,30.09,15,5,24,0.00
2013-8-23,72.6,62.2,52.9,33.0,-1.5,-99.9,47,19,2,30.09,29.87,13,5,18,0.00
2013-8-24,70.2,62.1,51.4,30.0,1.2,-99.9,44,14,1,29.99,29.84,17,5,24,0.00
2013-8-25,74.2,62.2,50.4,31.0,1.2,-99.9,47,17,1,30.08,29.99,10,3,14,0.00
2013-8-26,72.6,62.2,57.0,31.0,8.2,-99.9,34,17,1,30.04,29.97,11,4,19,0.00
2013-8-27,73.6,63.8,55.0,35.0,-0.5,-99.9,46,15,1,30.04,29.98,10,4,11,0.00
2013-8-28,75.5,64.9,53.7,36.0,-6.8,-99.9,50,19,1,30.04,29.97,16,4,19,0.00
2013-8-29,71.6,64.3,56.5,23.0,-25.4,-99.9,27,8,1,30.12,29.96,12,4,18,0.00
2013-8-30,74.0,63.9,55.1,23.0,-1.4,-99.9,29,13,1,30.11,29.97,10,4,15,0.00
2013-8-31,62.5,56.5,41.0,25.0,4.2,-40.0,33,16,1,30.16,29.93,15,4,16,0.00
2013-9-1,65.4,52.1,36.4,16.0,-8.3,-99.9,44,17,1,30.28,30.16,10,3,16,0.00
2013-9-2,74.2,62.2,51.3,23.0,-29.3,-99.9,29,10,1,30.19,29.99,11,5,15,0.00
2013-9-3,70.1,62.5,55.4,30.0,21.1,-2.0,36,22,6,30.06,29.96,9,3,14,0.00
2013-9-4,71.7,61.7,51.4,33.0,26.8,11.0,45,28,10,30.16,30.06,12,4,18,0.00
2013-9-5,73.0,61.5,49.8,36.0,29.5,14.0,58,33,11,30.15,30.05,16,4,19,0.02
2013-9-6,75.1,66.4,59.3,29.0,3.1,-99.9,32,13,1,30.05,29.97,11,3,13,0.00
2013-9-7,73.8,63.9,54.9,39.0,3.6,-99.9,44,23,1,30.06,29.96,14,4,19,0.00
2013-9-8,63.9,55.0,48.5,39.0,34.8,31.0,57,48,29,29.98,29.86,11,5,19,0.90
2013-9-9,57.1,48.8,42.8,33.0,28.6,22.0,60,47,27,30.12,29.84,9,2,14,0.00
2013-9-10,56.3,47.9,40.4,26.0,20.1,2.0,50,36,11,30.31,30.12,11,2,17,0.00
2013-9-11,61.4,51.0,42.6,27.0,13.9,-11.0,52,26,5,30.39,30.31,6,2,9,0.00
2013-9-12,60.5,51.6,44.3,21.0,12.6,-9.0,35,23,6,30.41,30.30,11,3,14,0.00
2013-9-13,54.2,48.3,43.9,33.0,27.3,19.0,58,45,32,30.29,29.96,13,5,22,0.04
2013-9-14,53.2,47.4,44.7,34.0,31.0,27.0,61,54,38,30.18,29.92,12,4,18,0.62
2013-9-15,51.2,42.1,37.7,31.0,24.3,15.0,62,51,24,30.41,30.19,10,4,14,0.04
2013-9-16,59.1,46.8,36.0,29.0,23.1,18.0,55,41,20,30.39,30.05,22,7,24,0.00
2013-9-17,71.1,57.8,45.0,29.0,-19.6,-99.9,46,18,1,30.05,29.73,14,4,23,0.00
2013-9-18,65.0,51.4,37.2,25.0,6.1,-99.9,48,23,4,29.95,29.68,15,5,37,0.03
2013-9-19,40.5,34.6,29.8,20.0,11.8,3.0,53,40,21,30.39,29.96,16,4,28,0.00
2013-9-20,54.8,40.7,27.9,13.0,-18.6,-99.9,52,24,1,30.40,30.15,10,3,14,0.01
2013-9-21,66.4,55.9,44.6,-14.0,-85.8,-202.0,7,1,1,30.14,29.74,12,6,18,0.00
2013-9-22,65.1,56.5,45.0,25.0,-63.0,-202.0,46,9,1,29.73,29.52,20,7,28,0.04
2013-9-23,44.7,38.6,32.2,26.0,22.5,16.0,61,53,35,30.15,29.51,11,3,19,0.58
2013-9-24,54.2,43.7,30.4,16.0,-18.8,-99.9,54,21,1,30.28,29.91,19,5,25,0.00
2013-9-25,58.4,46.7,35.1,25.0,-6.0,-99.9,60,24,1,29.91,29.57,22,6,27,0.16
2013-9-26,46.1,35.7,26.4,23.0,17.2,12.0,61,48,29,30.10,29.69,13,4,15,0.00
2013-9-27,26.2,23.8,21.9,13.0,11.9,10.0,61,61,57,30.25,30.06,9,2,13,0.16
2013-9-28,43.6,32.3,21.7,11.0,2.9,-18.0,61,35,7,30.33,30.23,12,5,26,0.02
2013-9-29,54.9,44.2,35.9,7.0,-16.7,-99.9,30,14,1,30.23,29.87,18,7,24,0.00
2013-9-30,59.8,45.0,34.0,21.0,-18.8,-99.9,52,16,2,29.98,29.70,18,7,30,0.00
2013-10-1,52.4,41.8,27.8,5.0,-33.8,-99.9,20,8,1,30.17,29.99,12,3,18,0.00
2013-10-2,45.4,37.2,29.8,9.0,2.6,-4.0,35,24,15,30.18,30.01,14,4,17,0.00
2013-10-3,32.1,27.5,20.8,14.0,11.8,8.0,60,52,36,30.34,30.12,24,6,27,0.16
2013-10-4,20.7,16.3,12.2,9.0,4.1,0.0,60,59,58,30.53,30.32,13,6,21,0.00
2013-10-5,16.1,13.2,12.3,4.0,1.1,0.0,60,59,58,30.60,30.53,17,7,23,0.00
2013-10-6,43.3,38.2,31.6,8.0,3.1,-5.0,32,24,13,30.49,30.36,14,3,20,0.09
2013-10-7,55.9,44.5,29.7,6.0,-56.1,-99.9,36,7,1,30.36,29.93,18,8,28,0.00
2013-10-8,46.0,40.2,32.6,5.0,-5.9,-21.0,30,15,6,30.05,29.84,12,4,19,0.00
2013-10-9,36.5,32.3,27.8,8.0,1.2,-7.0,42,27,16,30.27,30.05,20,4,20,0.00
2013-10-10,47.7,36.5,27.8,21.0,15.4,8.0,60,43,24,30.21,29.72,10,2,15,0.00
2013-10-11,32.6,25.5,21.2,20.0,12.9,6.0,61,59,52,30.28,29.59,21,8,36,1.46
2013-10-12,33.6,24.7,17.7,10.0,4.9,-2.0,58,45,22,30.53,30.29,11,3,21,0.58
2013-10-13,42.0,32.4,23.7,17.0,13.7,7.0,57,47,31,30.51,30.20,17,4,20,0.12
2013-10-14,34.2,22.2,16.1,16.0,10.1,4.0,61,60,46,30.47,30.12,15,5,22,0.43
2013-10-15,18.9,16.5,13.4,7.0,4.8,1.0,61,60,59,30.67,30.46,13,4,22,0.04
2013-10-16,32.7,23.1,14.5,11.0,4.2,1.0,60,46,27,30.57,30.34,12,3,17,0.09
2013-10-17,22.9,16.6,13.4,9.0,3.1,0.0,59,56,49,30.47,30.34,16,4,21,0.02
2013-10-18,23.0,17.9,13.5,5.0,2.7,0.0,59,52,43,30.53,30.36,15,5,22,0.00
2013-10-19,37.9,31.2,21.8,5.0,1.2,-5.0,45,29,16,30.36,30.09,14,6,23,0.08
2013-10-20,31.4,23.1,19.8,12.0,9.6,7.0,61,57,35,30.36,30.07,16,7,35,0.06
2013-10-21,30.1,25.4,19.6,15.0,11.8,7.0,60,57,49,30.38,30.32,16,7,24,0.24
2013-10-22,33.8,29.5,26.8,16.0,13.4,11.0,60,52,40,30.42,30.34,10,3,22,0.01
2013-10-23,34.1,28.4,23.1,14.0,12.6,11.0,61,52,38,30.51,30.32,15,4,19,0.00
2013-10-24,33.9,27.3,22.5,13.0,9.3,1.0,61,48,31,30.61,30.51,8,3,10,0.00
2013-10-25,48.2,36.7,29.1,14.0,4.7,-31.0,52,32,3,30.50,30.36,10,5,15,0.00
2013-10-26,44.0,35.1,26.3,3.0,-6.4,-23.0,35,19,5,30.47,30.24,14,4,17,0.00
2013-10-27,46.4,35.6,20.1,11.0,-20.4,-99.9,60,20,1,30.24,30.01,16,4,24,0.00
2013-10-28,19.8,14.4,9.7,8.0,1.6,-3.0,60,57,53,30.57,30.23,19,9,28,0.00
2013-10-29,22.3,16.2,9.6,7.0,2.7,-3.0,59,56,49,30.55,30.34,10,3,18,0.00
2013-10-30,28.2,25.2,22.1,13.0,6.7,0.0,59,46,31,30.33,30.03,11,4,16,0.05
2013-10-31,30.0,24.7,21.1,10.0,4.0,0.0,58,42,29,30.08,29.97,19,8,27,0.00
2013-11-1,27.4,23.1,20.2,11.0,1.0,-11.0,60,41,19,30.47,30.08,23,7,36,0.04
2013-11-2,40.7,31.2,20.5,-1.0,-25.6,-99.9,36,17,1,30.48,29.87,21,6,30,0.00
2013-11-3,37.4,27.8,19.3,8.0,-4.6,-32.0,50,30,4,30.07,29.76,10,4,17,0.00
2013-11-4,21.7,16.9,12.9,2.0,-2.5,-14.0,55,44,21,30.42,30.07,12,3,17,0.00
2013-11-5,19.5,14.3,9.8,3.0,-1.8,-12.0,57,49,34,30.47,30.38,8,2,9,0.12
2013-11-6,23.1,17.6,10.9,7.0,-2.1,-12.0,59,43,28,30.70,30.47,20,5,27,0.00
2013-11-7,34.0,25.1,14.8,3.0,-2.8,-13.0,53,32,13,30.69,30.09,16,5,26,0.02
2013-11-8,34.5,28.4,22.0,9.0,-3.3,-13.0,57,26,15,30.23,29.89,24,10,37,0.02
2013-11-9,27.1,22.9,18.7,2.0,-1.6,-6.0,47,35,25,30.58,30.23,12,5,21,0.00
2013-11-10,43.9,30.9,16.3,6.0,-4.6,-23.0,57,27,5,30.53,30.33,15,5,19,0.00
2013-11-11,16.8,14.2,11.0,4.0,1.3,-2.0,59,57,50,31.00,30.36,7,2,12,0.02
2013-11-12,42.7,31.4,13.7,-3.0,-60.9,-99.9,48,6,1,31.00,30.51,14,6,20,0.02
2013-11-13,42.3,34.6,25.8,13.0,-12.8,-99.9,57,20,1,30.51,30.19,6,1,14,0.05
2013-11-14,30.0,24.5,19.9,13.0,0.7,-13.0,59,38,18,30.24,30.04,13,4,17,0.02
2013-11-15,34.4,28.1,22.3,2.0,-12.1,-99.9,38,22,1,30.03,29.59,12,6,19,0.00
2013-11-16,25.9,21.6,16.5,0.0,-3.7,-9.0,47,33,23,29.69,29.53,10,3,17,0.00
2013-11-17,22.6,17.7,13.8,5.0,-5.9,-18.0,58,37,19,30.39,29.68,22,6,27,0.00
2013-11-18,36.1,11.2,11.8,-8.0,-61.8,-99.9,40,10,1,30.43,30.20,11,-460,13,0.00
2013-11-19,-200.0,0.0,200.0,-99.9,-99.9,-99.9,0,0,100,30.20,29.48,0,-999,0,0.00
2013-11-20,-200.0,0.0,200.0,-99.9,-99.9,-99.9,0,0,100,29.92,29.52,0,-999,0,0.00
2013-11-21,-200.0,0.0,200.0,-99.9,-99.9,-99.9,0,0,100,30.22,29.93,0,-999,0,0.00
2013-11-22,-200.0,0.0,200.0,-99.9,-99.9,-99.9,0,0,100,30.32,30.18,0,-999,0,0.00
2013-11-23,-200.0,0.0,200.0,-99.9,-99.9,-99.9,0,0,100,30.33,30.06,0,-999,0,0.00
2013-11-24,-200.0,0.0,200.0,-99.9,-99.9,-99.9,0,0,100,30.05,29.76,0,-999,0,0.00
2013-11-25,-200.0,0.0,200.0,-99.9,-99.9,-99.9,0,0,100,30.06,29.88,0,-999,0,0.00
2013-11-26,-200.0,0.0,200.0,-99.9,-99.9,-99.9,0,0,100,30.13,29.94,0,-999,0,0.00
2013-11-27,-200.0,0.0,200.0,-99.9,-99.9,-99.9,0,0,100,29.94,29.81,0,-999,0,0.00
2013-11-28,-200.0,0.0,200.0,-99.9,-99.9,-99.9,0,0,100,29.98,29.86,0,-999,0,0.00
2013-11-29,-200.0,0.0,200.0,-99.9,-99.9,-99.9,0,0,100,29.91,29.85,0,-999,0,0.00
2013-11-30,-200.0,0.0,200.0,-99.9,-99.9,-99.9,0,0,100,29.96,29.89,0,-999,0,0.00
2013-12-1,-200.0,0.0,200.0,-99.9,-99.9,-99.9,0,0,100,29.89,29.49,0,-999,0,0.00
2013-12-2,-200.0,0.0,200.0,-99.9,-99.9,-99.9,0,0,100,29.49,29.25,0,-999,0,0.00
2013-12-3,-200.0,0.0,200.0,-99.9,-99.9,-99.9,0,0,100,29.50,29.25,0,-999,0,0.00
2013-12-4,-200.0,0.0,200.0,-99.9,-99.9,-99.9,0,0,100,29.65,29.45,0,-999,0,0.00
2013-12-5,-200.0,0.0,200.0,-99.9,-99.9,-99.9,0,0,100,29.78,29.63,0,-999,0,0.00
2013-12-6,-200.0,0.0,200.0,-99.9,-99.9,-99.9,0,0,100,29.88,29.77,0,-999,0,0.00
2013-12-7,-200.0,0.0,200.0,-99.9,-99.9,-99.9,0,0,100,29.86,29.48,0,-999,0,0.00
2013-12-8,-200.0,0.0,200.0,-99.9,-99.9,-99.9,0,0,100,29.62,29.38,0,-999,0,0.00
2013-12-9,-200.0,0.0,200.0,-99.9,-99.9,-99.9,0,0,100,29.63,29.45,0,-999,0,0.00
2013-12-10,-200.0,0.0,200.0,-99.9,-99.9,-99.9,0,0,100,29.92,29.56,0,-999,0,0.00
2013-12-11,-200.0,0.0,200.0,-99.9,-99.9,-99.9,0,0,100,29.96,29.89,0,-999,0,0.00
2013-12-12,-200.0,0.0,200.0,-99.9,-99.9,-99.9,0,0,100,29.94,29.67,0,-999,0,0.00
2013-12-13,-200.0,0.0,200.0,-99.9,-99.9,-99.9,0,0,100,29.86,29.63,0,-999,0,0.00
2013-12-14,-200.0,0.0,200.0,-99.9,-99.9,-99.9,0,0,100,29.91,29.82,0,-999,0,0.00
2013-12-15,-200.0,0.0,200.0,-99.9,-99.9,-99.9,0,0,100,29.81,29.73,0,-999,0,0.00
2013-12-16,-200.0,0.0,200.0,-99.9,-99.9,-99.9,0,0,100,29.96,29.76,0,-999,0,0.00
2013-12-17,-200.0,0.0,200.0,-99.9,-99.9,-99.9,0,0,100,30.00,29.70,0,-999,0,0.00
2013-12-18,-200.0,0.0,200.0,-99.9,-99.9,-99.9,0,0,100,29.69,29.52,0,-999,0,0.00
2013-12-19,-200.0,0.0,200.0,-99.9,-99.9,-99.9,0,0,100,29.62,29.45,0,-999,0,0.00
2013-12-20,-200.0,0.0,200.0,-99.9,-99.9,-99.9,0,0,100,29.55,29.31,0,-999,0,0.00
2013-12-21,-200.0,0.0,200.0,-99.9,-99.9,-99.9,0,0,100,29.59,29.28,0,-999,0,0.00
2013-12-22,-200.0,0.0,200.0,-99.9,-99.9,-99.9,0,0,100,29.87,29.58,0,-999,0,0.00
2013-12-23,-200.0,0.0,200.0,-99.9,-99.9,-99.9,0,0,100,29.88,29.67,0,-999,0,0.00
2013-12-24,-200.0,0.0,200.0,-99.9,-99.9,-99.9,0,0,100,29.94,29.62,0,-999,0,0.00
2013-12-25,-200.0,0.0,200.0,-99.9,-99.9,-99.9,0,0,100,30.04,29.83,0,-999,0,0.00
2013-12-26,-200.0,0.0,200.0,-99.9,-99.9,-99.9,0,0,100,29.98,29.82,0,-999,0,0.00
2013-12-27,-200.0,0.0,200.0,-99.9,-99.9,-99.9,0,0,100,29.99,29.70,0,-999,0,0.00
2013-12-28,-200.0,0.0,200.0,-99.9,-99.9,-99.9,0,0,100,29.97,29.64,0,-999,0,0.00
2013-12-29,-200.0,0.0,200.0,-99.9,-99.9,-99.9,0,0,100,29.94,29.60,0,-999,0,0.00
2013-12-30,-200.0,0.0,200.0,-99.9,-99.9,-99.9,0,0,100,29.86,29.62,0,-999,0,0.00
2013-12-31,-200.0,0.0,200.0,-99.9,-99.9,-99.9,0,0,100,29.72,29.64,0,-999,0,0.00
2014-1-1,-200.0,0.0,200.0,-99.9,-99.9,-99.9,0,0,100,29.96,29.72,0,-999,0,0.00
2014-1-2,-200.0,0.0,200.0,-99.9,-99.9,-99.9,0,0,100,29.91,29.61,0,-999,0,0.00